sensor_id;sensor_type;location;lat;lon;timestamp;P1;durP1;ratioP1;P2;durP2;ratioP2
25191;SDS011;13143;50.924;5.320;2023-06-14T00:01:00;12.32;;;7.20;;
25191;SDS011;13143;50.924;5.320;2023-06-14T00:03:28;10.73;;;6.25;;
25191;SDS011;13143;50.924;5.320;2023-06-14T00:05:54;12.73;;;6.80;;
25191;SDS011;13143;50.924;5.320;2023-06-14T00:08:21;13.95;;;6.30;;
25191;SDS011;13143;50.924;5.320;2023-06-14T00:10:48;11.27;;;6.25;;
25191;SDS011;13143;50.924;5.320;2023-06-14T00:13:14;9.25;;;6.38;;
25191;SDS011;13143;50.924;5.320;2023-06-14T00:15:40;14.25;;;6.75;;
25191;SDS011;13143;50.924;5.320;2023-06-14T00:18:07;22.77;;;7.18;;
25191;SDS011;13143;50.924;5.320;2023-06-14T00:20:37;9.85;;;6.40;;
25191;SDS011;13143;50.924;5.320;2023-06-14T00:23:03;8.07;;;6.63;;
25191;SDS011;13143;50.924;5.320;2023-06-14T00:25:29;10.10;;;6.93;;
25191;SDS011;13143;50.924;5.320;2023-06-14T00:27:55;13.23;;;7.45;;
25191;SDS011;13143;50.924;5.320;2023-06-14T00:30:22;8.68;;;7.00;;
25191;SDS011;13143;50.924;5.320;2023-06-14T00:32:49;17.05;;;7.40;;
25191;SDS011;13143;50.924;5.320;2023-06-14T00:35:16;15.20;;;7.10;;
25191;SDS011;13143;50.924;5.320;2023-06-14T00:37:43;14.68;;;6.68;;
25191;SDS011;13143;50.924;5.320;2023-06-14T00:40:09;8.60;;;6.47;;
25191;SDS011;13143;50.924;5.320;2023-06-14T00:42:35;11.50;;;6.82;;
25191;SDS011;13143;50.924;5.320;2023-06-14T00:45:01;11.85;;;6.70;;
25191;SDS011;13143;50.924;5.320;2023-06-14T00:47:28;8.38;;;6.72;;
25191;SDS011;13143;50.924;5.320;2023-06-14T00:49:54;10.65;;;6.95;;
25191;SDS011;13143;50.924;5.320;2023-06-14T00:52:22;13.55;;;7.00;;
25191;SDS011;13143;50.924;5.320;2023-06-14T00:54:49;11.68;;;7.13;;
25191;SDS011;13143;50.924;5.320;2023-06-14T00:57:15;13.48;;;6.88;;
25191;SDS011;13143;50.924;5.320;2023-06-14T00:59:43;9.65;;;6.93;;
25191;SDS011;13143;50.924;5.320;2023-06-14T01:02:12;14.55;;;6.70;;
25191;SDS011;13143;50.924;5.320;2023-06-14T01:04:43;11.68;;;7.00;;
25191;SDS011;13143;50.924;5.320;2023-06-14T01:09:47;10.10;;;7.30;;
25191;SDS011;13143;50.924;5.320;2023-06-14T01:15:30;9.95;;;6.88;;
25191;SDS011;13143;50.924;5.320;2023-06-14T01:17:57;10.20;;;7.05;;
25191;SDS011;13143;50.924;5.320;2023-06-14T01:20:29;14.55;;;7.60;;
25191;SDS011;13143;50.924;5.320;2023-06-14T01:22:57;11.20;;;6.78;;
25191;SDS011;13143;50.924;5.320;2023-06-14T01:25:25;12.65;;;8.02;;
25191;SDS011;13143;50.924;5.320;2023-06-14T01:28:05;7.80;;;6.78;;
25191;SDS011;13143;50.924;5.320;2023-06-14T01:30:37;11.63;;;7.03;;
25191;SDS011;13143;50.924;5.320;2023-06-14T01:33:08;15.43;;;6.95;;
25191;SDS011;13143;50.924;5.320;2023-06-14T01:35:34;15.40;;;6.80;;
25191;SDS011;13143;50.924;5.320;2023-06-14T01:38:01;9.82;;;6.70;;
25191;SDS011;13143;50.924;5.320;2023-06-14T01:40:29;11.18;;;7.28;;
25191;SDS011;13143;50.924;5.320;2023-06-14T01:42:57;12.32;;;7.03;;
25191;SDS011;13143;50.924;5.320;2023-06-14T01:45:23;12.82;;;7.43;;
25191;SDS011;13143;50.924;5.320;2023-06-14T01:47:50;12.40;;;7.38;;
25191;SDS011;13143;50.924;5.320;2023-06-14T01:50:18;12.30;;;7.07;;
25191;SDS011;13143;50.924;5.320;2023-06-14T01:52:45;11.02;;;7.30;;
25191;SDS011;13143;50.924;5.320;2023-06-14T01:55:12;14.35;;;7.35;;
25191;SDS011;13143;50.924;5.320;2023-06-14T01:57:38;11.88;;;7.53;;
25191;SDS011;13143;50.924;5.320;2023-06-14T02:00:04;11.68;;;7.40;;
25191;SDS011;13143;50.924;5.320;2023-06-14T02:02:36;11.73;;;7.85;;
25191;SDS011;13143;50.924;5.320;2023-06-14T02:05:02;10.52;;;8.20;;
25191;SDS011;13143;50.924;5.320;2023-06-14T02:07:29;10.57;;;7.70;;
25191;SDS011;13143;50.924;5.320;2023-06-14T02:09:55;10.93;;;8.00;;
25191;SDS011;13143;50.924;5.320;2023-06-14T02:12:21;11.48;;;7.75;;
25191;SDS011;13143;50.924;5.320;2023-06-14T02:14:47;14.25;;;7.80;;
25191;SDS011;13143;50.924;5.320;2023-06-14T02:17:14;12.43;;;7.78;;
25191;SDS011;13143;50.924;5.320;2023-06-14T02:19:41;11.07;;;7.45;;
25191;SDS011;13143;50.924;5.320;2023-06-14T02:22:07;17.55;;;8.10;;
25191;SDS011;13143;50.924;5.320;2023-06-14T02:24:34;17.27;;;8.32;;
25191;SDS011;13143;50.924;5.320;2023-06-14T02:27:01;12.13;;;8.00;;
25191;SDS011;13143;50.924;5.320;2023-06-14T02:29:27;12.07;;;8.55;;
25191;SDS011;13143;50.924;5.320;2023-06-14T02:31:53;12.75;;;8.35;;
25191;SDS011;13143;50.924;5.320;2023-06-14T02:34:20;15.30;;;8.38;;
25191;SDS011;13143;50.924;5.320;2023-06-14T02:36:47;11.98;;;7.97;;
25191;SDS011;13143;50.924;5.320;2023-06-14T02:39:13;15.38;;;8.75;;
25191;SDS011;13143;50.924;5.320;2023-06-14T02:41:40;12.25;;;8.07;;
25191;SDS011;13143;50.924;5.320;2023-06-14T02:44:06;13.90;;;8.85;;
25191;SDS011;13143;50.924;5.320;2023-06-14T02:46:32;14.60;;;8.43;;
25191;SDS011;13143;50.924;5.320;2023-06-14T02:48:59;16.83;;;8.57;;
25191;SDS011;13143;50.924;5.320;2023-06-14T02:51:25;16.45;;;9.27;;
25191;SDS011;13143;50.924;5.320;2023-06-14T02:53:51;15.55;;;8.77;;
25191;SDS011;13143;50.924;5.320;2023-06-14T02:56:17;12.63;;;8.23;;
25191;SDS011;13143;50.924;5.320;2023-06-14T02:58:44;14.75;;;8.85;;
25191;SDS011;13143;50.924;5.320;2023-06-14T03:01:11;18.00;;;8.25;;
25191;SDS011;13143;50.924;5.320;2023-06-14T03:03:40;17.55;;;8.75;;
25191;SDS011;13143;50.924;5.320;2023-06-14T03:06:07;13.45;;;8.63;;
25191;SDS011;13143;50.924;5.320;2023-06-14T03:08:33;15.75;;;8.85;;
25191;SDS011;13143;50.924;5.320;2023-06-14T03:11:04;17.33;;;8.65;;
25191;SDS011;13143;50.924;5.320;2023-06-14T03:13:31;14.63;;;8.40;;
25191;SDS011;13143;50.924;5.320;2023-06-14T03:15:57;15.63;;;8.40;;
25191;SDS011;13143;50.924;5.320;2023-06-14T03:18:24;12.07;;;8.50;;
25191;SDS011;13143;50.924;5.320;2023-06-14T03:20:50;17.00;;;9.25;;
25191;SDS011;13143;50.924;5.320;2023-06-14T03:23:16;12.73;;;8.25;;
25191;SDS011;13143;50.924;5.320;2023-06-14T03:25:43;14.23;;;9.52;;
25191;SDS011;13143;50.924;5.320;2023-06-14T03:28:09;18.65;;;8.85;;
25191;SDS011;13143;50.924;5.320;2023-06-14T03:30:35;14.90;;;8.93;;
25191;SDS011;13143;50.924;5.320;2023-06-14T03:33:02;14.27;;;8.85;;
25191;SDS011;13143;50.924;5.320;2023-06-14T03:35:28;14.85;;;8.68;;
25191;SDS011;13143;50.924;5.320;2023-06-14T03:37:54;14.27;;;8.70;;
25191;SDS011;13143;50.924;5.320;2023-06-14T03:40:21;11.73;;;8.93;;
25191;SDS011;13143;50.924;5.320;2023-06-14T03:42:47;16.52;;;8.35;;
25191;SDS011;13143;50.924;5.320;2023-06-14T03:45:13;16.17;;;9.02;;
25191;SDS011;13143;50.924;5.320;2023-06-14T03:47:39;18.13;;;8.80;;
25191;SDS011;13143;50.924;5.320;2023-06-14T03:50:05;12.18;;;8.88;;
25191;SDS011;13143;50.924;5.320;2023-06-14T03:52:32;16.88;;;9.48;;
25191;SDS011;13143;50.924;5.320;2023-06-14T03:54:59;16.73;;;9.18;;
25191;SDS011;13143;50.924;5.320;2023-06-14T03:57:29;17.20;;;9.57;;
25191;SDS011;13143;50.924;5.320;2023-06-14T03:59:55;11.07;;;8.20;;
25191;SDS011;13143;50.924;5.320;2023-06-14T04:02:22;15.75;;;9.10;;
25191;SDS011;13143;50.924;5.320;2023-06-14T04:04:48;14.40;;;8.75;;
25191;SDS011;13143;50.924;5.320;2023-06-14T04:07:15;11.60;;;9.25;;
25191;SDS011;13143;50.924;5.320;2023-06-14T04:09:44;12.95;;;8.38;;
25191;SDS011;13143;50.924;5.320;2023-06-14T04:12:11;18.10;;;10.20;;
25191;SDS011;13143;50.924;5.320;2023-06-14T04:14:38;16.33;;;8.90;;
25191;SDS011;13143;50.924;5.320;2023-06-14T04:17:07;18.63;;;9.27;;
25191;SDS011;13143;50.924;5.320;2023-06-14T04:19:33;11.98;;;8.75;;
25191;SDS011;13143;50.924;5.320;2023-06-14T04:21:59;15.30;;;9.13;;
25191;SDS011;13143;50.924;5.320;2023-06-14T04:24:27;13.73;;;8.80;;
25191;SDS011;13143;50.924;5.320;2023-06-14T04:27:00;20.55;;;9.80;;
25191;SDS011;13143;50.924;5.320;2023-06-14T04:29:27;17.13;;;9.15;;
25191;SDS011;13143;50.924;5.320;2023-06-14T04:31:55;14.38;;;9.27;;
25191;SDS011;13143;50.924;5.320;2023-06-14T04:34:25;10.93;;;8.23;;
25191;SDS011;13143;50.924;5.320;2023-06-14T04:36:55;13.63;;;8.23;;
25191;SDS011;13143;50.924;5.320;2023-06-14T04:39:24;10.88;;;8.25;;
25191;SDS011;13143;50.924;5.320;2023-06-14T04:41:51;15.40;;;8.48;;
25191;SDS011;13143;50.924;5.320;2023-06-14T04:44:18;17.70;;;9.15;;
25191;SDS011;13143;50.924;5.320;2023-06-14T04:46:45;13.27;;;9.27;;
25191;SDS011;13143;50.924;5.320;2023-06-14T04:49:12;15.55;;;8.68;;
25191;SDS011;13143;50.924;5.320;2023-06-14T04:51:41;11.15;;;8.00;;
25191;SDS011;13143;50.924;5.320;2023-06-14T04:54:08;15.43;;;8.75;;
25191;SDS011;13143;50.924;5.320;2023-06-14T04:56:41;20.55;;;10.57;;
25191;SDS011;13143;50.924;5.320;2023-06-14T04:59:08;12.05;;;7.95;;
25191;SDS011;13143;50.924;5.320;2023-06-14T05:01:34;13.43;;;8.38;;
25191;SDS011;13143;50.924;5.320;2023-06-14T05:04:01;16.02;;;8.98;;
25191;SDS011;13143;50.924;5.320;2023-06-14T05:06:28;16.10;;;9.43;;
25191;SDS011;13143;50.924;5.320;2023-06-14T05:08:56;17.77;;;8.82;;
25191;SDS011;13143;50.924;5.320;2023-06-14T05:11:22;11.88;;;8.57;;
25191;SDS011;13143;50.924;5.320;2023-06-14T05:13:52;18.55;;;8.65;;
25191;SDS011;13143;50.924;5.320;2023-06-14T05:16:18;18.55;;;8.52;;
25191;SDS011;13143;50.924;5.320;2023-06-14T05:18:45;14.00;;;9.15;;
25191;SDS011;13143;50.924;5.320;2023-06-14T05:21:13;12.43;;;8.43;;
25191;SDS011;13143;50.924;5.320;2023-06-14T05:23:43;14.45;;;8.90;;
25191;SDS011;13143;50.924;5.320;2023-06-14T05:26:10;14.68;;;8.18;;
25191;SDS011;13143;50.924;5.320;2023-06-14T05:28:37;10.65;;;8.27;;
25191;SDS011;13143;50.924;5.320;2023-06-14T05:31:03;10.93;;;7.95;;
25191;SDS011;13143;50.924;5.320;2023-06-14T05:33:29;20.02;;;8.43;;
25191;SDS011;13143;50.924;5.320;2023-06-14T05:35:55;12.18;;;8.10;;
25191;SDS011;13143;50.924;5.320;2023-06-14T05:38:21;18.55;;;8.85;;
25191;SDS011;13143;50.924;5.320;2023-06-14T05:40:47;13.18;;;8.25;;
25191;SDS011;13143;50.924;5.320;2023-06-14T05:43:13;14.18;;;8.23;;
25191;SDS011;13143;50.924;5.320;2023-06-14T05:45:40;13.23;;;8.05;;
25191;SDS011;13143;50.924;5.320;2023-06-14T05:48:06;17.70;;;8.35;;
25191;SDS011;13143;50.924;5.320;2023-06-14T05:50:32;14.68;;;8.55;;
25191;SDS011;13143;50.924;5.320;2023-06-14T05:52:59;16.00;;;8.90;;
25191;SDS011;13143;50.924;5.320;2023-06-14T05:55:25;16.80;;;8.60;;
25191;SDS011;13143;50.924;5.320;2023-06-14T05:57:51;18.55;;;8.65;;
25191;SDS011;13143;50.924;5.320;2023-06-14T06:00:17;18.77;;;8.88;;
25191;SDS011;13143;50.924;5.320;2023-06-14T06:02:45;20.20;;;8.68;;
25191;SDS011;13143;50.924;5.320;2023-06-14T06:05:13;15.57;;;9.00;;
25191;SDS011;13143;50.924;5.320;2023-06-14T06:07:39;17.02;;;8.05;;
25191;SDS011;13143;50.924;5.320;2023-06-14T06:10:05;17.50;;;8.70;;
25191;SDS011;13143;50.924;5.320;2023-06-14T06:12:32;15.75;;;8.88;;
25191;SDS011;13143;50.924;5.320;2023-06-14T06:14:58;15.25;;;8.45;;
25191;SDS011;13143;50.924;5.320;2023-06-14T06:17:25;14.63;;;8.90;;
25191;SDS011;13143;50.924;5.320;2023-06-14T06:19:52;19.23;;;9.00;;
25191;SDS011;13143;50.924;5.320;2023-06-14T06:22:18;16.67;;;8.80;;
25191;SDS011;13143;50.924;5.320;2023-06-14T06:24:44;25.70;;;9.10;;
25191;SDS011;13143;50.924;5.320;2023-06-14T06:27:10;18.80;;;9.18;;
25191;SDS011;13143;50.924;5.320;2023-06-14T06:29:38;14.25;;;9.13;;
25191;SDS011;13143;50.924;5.320;2023-06-14T06:32:04;21.27;;;8.95;;
25191;SDS011;13143;50.924;5.320;2023-06-14T06:34:31;20.02;;;9.35;;
25191;SDS011;13143;50.924;5.320;2023-06-14T06:36:57;16.15;;;9.02;;
25191;SDS011;13143;50.924;5.320;2023-06-14T06:39:23;23.23;;;9.82;;
25191;SDS011;13143;50.924;5.320;2023-06-14T06:41:49;13.38;;;8.93;;
25191;SDS011;13143;50.924;5.320;2023-06-14T06:44:15;22.40;;;8.85;;
25191;SDS011;13143;50.924;5.320;2023-06-14T06:46:41;15.15;;;8.68;;
25191;SDS011;13143;50.924;5.320;2023-06-14T06:49:09;14.70;;;8.52;;
25191;SDS011;13143;50.924;5.320;2023-06-14T06:51:37;14.10;;;7.75;;
25191;SDS011;13143;50.924;5.320;2023-06-14T06:54:07;15.07;;;8.23;;
25191;SDS011;13143;50.924;5.320;2023-06-14T06:56:34;16.55;;;8.95;;
25191;SDS011;13143;50.924;5.320;2023-06-14T06:59:00;15.65;;;7.82;;
25191;SDS011;13143;50.924;5.320;2023-06-14T07:01:26;13.85;;;7.57;;
25191;SDS011;13143;50.924;5.320;2023-06-14T07:03:54;12.88;;;7.85;;
25191;SDS011;13143;50.924;5.320;2023-06-14T07:06:21;25.00;;;7.78;;
25191;SDS011;13143;50.924;5.320;2023-06-14T07:08:47;18.00;;;9.50;;
25191;SDS011;13143;50.924;5.320;2023-06-14T07:11:16;22.27;;;8.52;;
25191;SDS011;13143;50.924;5.320;2023-06-14T07:13:42;13.48;;;8.30;;
25191;SDS011;13143;50.924;5.320;2023-06-14T07:16:08;17.38;;;7.75;;
25191;SDS011;13143;50.924;5.320;2023-06-14T07:18:34;15.18;;;8.27;;
25191;SDS011;13143;50.924;5.320;2023-06-14T07:21:02;24.42;;;8.32;;
25191;SDS011;13143;50.924;5.320;2023-06-14T07:23:29;16.52;;;7.75;;
25191;SDS011;13143;50.924;5.320;2023-06-14T07:25:55;14.82;;;7.60;;
25191;SDS011;13143;50.924;5.320;2023-06-14T07:28:21;16.05;;;7.30;;
25191;SDS011;13143;50.924;5.320;2023-06-14T07:30:47;18.88;;;7.85;;
25191;SDS011;13143;50.924;5.320;2023-06-14T07:33:14;15.10;;;7.15;;
25191;SDS011;13143;50.924;5.320;2023-06-14T07:35:40;21.35;;;7.93;;
25191;SDS011;13143;50.924;5.320;2023-06-14T07:38:06;14.38;;;7.03;;
25191;SDS011;13143;50.924;5.320;2023-06-14T07:40:32;12.95;;;6.97;;
25191;SDS011;13143;50.924;5.320;2023-06-14T07:42:58;13.45;;;7.15;;
25191;SDS011;13143;50.924;5.320;2023-06-14T07:45:25;13.40;;;7.55;;
25191;SDS011;13143;50.924;5.320;2023-06-14T07:47:51;12.35;;;7.07;;
25191;SDS011;13143;50.924;5.320;2023-06-14T07:50:17;16.02;;;7.60;;
25191;SDS011;13143;50.924;5.320;2023-06-14T07:52:43;18.70;;;6.93;;
25191;SDS011;13143;50.924;5.320;2023-06-14T07:55:11;11.85;;;7.22;;
25191;SDS011;13143;50.924;5.320;2023-06-14T07:57:37;11.35;;;7.22;;
25191;SDS011;13143;50.924;5.320;2023-06-14T08:00:03;15.55;;;8.00;;
25191;SDS011;13143;50.924;5.320;2023-06-14T08:02:33;12.63;;;6.80;;
25191;SDS011;13143;50.924;5.320;2023-06-14T08:04:59;16.83;;;6.72;;
25191;SDS011;13143;50.924;5.320;2023-06-14T08:07:25;15.93;;;6.93;;
25191;SDS011;13143;50.924;5.320;2023-06-14T08:09:52;13.30;;;6.97;;
25191;SDS011;13143;50.924;5.320;2023-06-14T08:12:18;13.55;;;6.80;;
25191;SDS011;13143;50.924;5.320;2023-06-14T08:14:44;12.32;;;6.50;;
25191;SDS011;13143;50.924;5.320;2023-06-14T08:17:10;14.63;;;7.40;;
25191;SDS011;13143;50.924;5.320;2023-06-14T08:19:36;15.45;;;7.15;;
25191;SDS011;13143;50.924;5.320;2023-06-14T08:22:02;12.18;;;6.85;;
25191;SDS011;13143;50.924;5.320;2023-06-14T08:24:29;12.55;;;6.50;;
25191;SDS011;13143;50.924;5.320;2023-06-14T08:26:55;12.30;;;6.40;;
25191;SDS011;13143;50.924;5.320;2023-06-14T08:29:26;11.20;;;6.22;;
25191;SDS011;13143;50.924;5.320;2023-06-14T08:31:54;13.73;;;6.70;;
25191;SDS011;13143;50.924;5.320;2023-06-14T08:34:20;15.80;;;5.82;;
25191;SDS011;13143;50.924;5.320;2023-06-14T08:36:52;23.73;;;6.40;;
25191;SDS011;13143;50.924;5.320;2023-06-14T08:39:18;16.75;;;6.40;;
25191;SDS011;13143;50.924;5.320;2023-06-14T08:41:46;15.93;;;6.70;;
25191;SDS011;13143;50.924;5.320;2023-06-14T08:44:16;11.63;;;6.32;;
25191;SDS011;13143;50.924;5.320;2023-06-14T08:46:42;12.88;;;5.90;;
25191;SDS011;13143;50.924;5.320;2023-06-14T08:49:12;15.20;;;6.32;;
25191;SDS011;13143;50.924;5.320;2023-06-14T08:51:39;11.23;;;5.72;;
25191;SDS011;13143;50.924;5.320;2023-06-14T08:54:07;15.70;;;6.10;;
25191;SDS011;13143;50.924;5.320;2023-06-14T08:56:33;16.02;;;5.60;;
25191;SDS011;13143;50.924;5.320;2023-06-14T08:59:02;16.50;;;5.88;;
25191;SDS011;13143;50.924;5.320;2023-06-14T09:01:36;9.13;;;5.88;;
25191;SDS011;13143;50.924;5.320;2023-06-14T09:04:03;13.25;;;5.70;;
25191;SDS011;13143;50.924;5.320;2023-06-14T09:06:32;17.30;;;6.20;;
25191;SDS011;13143;50.924;5.320;2023-06-14T09:08:59;12.70;;;5.63;;
25191;SDS011;13143;50.924;5.320;2023-06-14T09:11:25;10.50;;;5.80;;
25191;SDS011;13143;50.924;5.320;2023-06-14T09:13:53;15.68;;;5.50;;
25191;SDS011;13143;50.924;5.320;2023-06-14T09:16:20;12.68;;;5.15;;
25191;SDS011;13143;50.924;5.320;2023-06-14T09:18:46;10.32;;;4.90;;
25191;SDS011;13143;50.924;5.320;2023-06-14T09:21:13;15.02;;;5.97;;
25191;SDS011;13143;50.924;5.320;2023-06-14T09:23:41;10.32;;;5.05;;
25191;SDS011;13143;50.924;5.320;2023-06-14T09:26:09;16.15;;;5.47;;
25191;SDS011;13143;50.924;5.320;2023-06-14T09:28:46;14.50;;;5.03;;
25191;SDS011;13143;50.924;5.320;2023-06-14T09:31:15;10.50;;;4.55;;
25191;SDS011;13143;50.924;5.320;2023-06-14T09:33:43;19.05;;;4.95;;
25191;SDS011;13143;50.924;5.320;2023-06-14T09:36:17;16.23;;;4.72;;
25191;SDS011;13143;50.924;5.320;2023-06-14T09:38:54;16.13;;;4.85;;
25191;SDS011;13143;50.924;5.320;2023-06-14T09:41:30;11.55;;;4.90;;
25191;SDS011;13143;50.924;5.320;2023-06-14T09:46:30;13.05;;;4.75;;
25191;SDS011;13143;50.924;5.320;2023-06-14T09:48:57;10.90;;;4.72;;
25191;SDS011;13143;50.924;5.320;2023-06-14T09:51:24;10.02;;;4.10;;
25191;SDS011;13143;50.924;5.320;2023-06-14T09:53:52;10.90;;;4.38;;
25191;SDS011;13143;50.924;5.320;2023-06-14T09:56:22;18.48;;;4.22;;
25191;SDS011;13143;50.924;5.320;2023-06-14T09:58:58;14.77;;;4.60;;
25191;SDS011;13143;50.924;5.320;2023-06-14T10:01:26;10.60;;;4.70;;
25191;SDS011;13143;50.924;5.320;2023-06-14T10:03:57;10.32;;;4.25;;
25191;SDS011;13143;50.924;5.320;2023-06-14T10:06:29;9.07;;;4.25;;
25191;SDS011;13143;50.924;5.320;2023-06-14T10:08:56;12.50;;;4.53;;
25191;SDS011;13143;50.924;5.320;2023-06-14T10:11:25;14.60;;;4.30;;
25191;SDS011;13143;50.924;5.320;2023-06-14T10:13:52;9.23;;;3.47;;
25191;SDS011;13143;50.924;5.320;2023-06-14T10:16:22;9.23;;;3.70;;
25191;SDS011;13143;50.924;5.320;2023-06-14T10:24:23;6.78;;;3.90;;
25191;SDS011;13143;50.924;5.320;2023-06-14T10:27:01;15.55;;;3.97;;
25191;SDS011;13143;50.924;5.320;2023-06-14T10:29:28;16.35;;;4.00;;
25191;SDS011;13143;50.924;5.320;2023-06-14T10:31:58;10.30;;;3.72;;
25191;SDS011;13143;50.924;5.320;2023-06-14T10:34:25;7.95;;;3.92;;
25191;SDS011;13143;50.924;5.320;2023-06-14T10:37:05;13.18;;;3.78;;
25191;SDS011;13143;50.924;5.320;2023-06-14T10:39:33;10.88;;;3.75;;
25191;SDS011;13143;50.924;5.320;2023-06-14T10:42:09;8.00;;;3.47;;
25191;SDS011;13143;50.924;5.320;2023-06-14T10:44:39;8.48;;;3.85;;
25191;SDS011;13143;50.924;5.320;2023-06-14T10:47:07;9.88;;;3.80;;
25191;SDS011;13143;50.924;5.320;2023-06-14T10:49:42;8.88;;;4.22;;
25191;SDS011;13143;50.924;5.320;2023-06-14T10:52:13;13.63;;;4.20;;
25191;SDS011;13143;50.924;5.320;2023-06-14T10:57:52;7.00;;;3.72;;
25191;SDS011;13143;50.924;5.320;2023-06-14T11:00:24;11.23;;;3.97;;
25191;SDS011;13143;50.924;5.320;2023-06-14T11:10:52;7.55;;;4.47;;
25191;SDS011;13143;50.924;5.320;2023-06-14T11:13:23;8.73;;;4.30;;
25191;SDS011;13143;50.924;5.320;2023-06-14T11:15:51;4.93;;;3.10;;
25191;SDS011;13143;50.924;5.320;2023-06-14T11:18:19;9.48;;;4.15;;
25191;SDS011;13143;50.924;5.320;2023-06-14T11:20:49;8.43;;;4.00;;
25191;SDS011;13143;50.924;5.320;2023-06-14T11:23:15;5.93;;;3.60;;
25191;SDS011;13143;50.924;5.320;2023-06-14T11:25:42;6.45;;;2.65;;
25191;SDS011;13143;50.924;5.320;2023-06-14T11:28:11;4.60;;;2.55;;
25191;SDS011;13143;50.924;5.320;2023-06-14T11:30:37;6.88;;;2.70;;
25191;SDS011;13143;50.924;5.320;2023-06-14T11:33:03;5.40;;;2.78;;
25191;SDS011;13143;50.924;5.320;2023-06-14T11:35:29;12.20;;;2.70;;
25191;SDS011;13143;50.924;5.320;2023-06-14T11:37:55;6.65;;;2.30;;
25191;SDS011;13143;50.924;5.320;2023-06-14T11:40:26;6.80;;;2.50;;
25191;SDS011;13143;50.924;5.320;2023-06-14T11:43:02;3.22;;;2.47;;
25191;SDS011;13143;50.924;5.320;2023-06-14T11:45:29;5.00;;;2.30;;
25191;SDS011;13143;50.924;5.320;2023-06-14T11:47:56;4.57;;;2.20;;
25191;SDS011;13143;50.924;5.320;2023-06-14T11:50:24;2.95;;;2.28;;
25191;SDS011;13143;50.924;5.320;2023-06-14T11:55:25;3.40;;;2.10;;
25191;SDS011;13143;50.924;5.320;2023-06-14T11:57:53;2.67;;;2.17;;
25191;SDS011;13143;50.924;5.320;2023-06-14T12:00:24;5.45;;;2.00;;
25191;SDS011;13143;50.924;5.320;2023-06-14T12:02:54;3.92;;;2.05;;
25191;SDS011;13143;50.924;5.320;2023-06-14T12:05:24;4.88;;;2.25;;
25191;SDS011;13143;50.924;5.320;2023-06-14T12:07:57;3.45;;;2.03;;
25191;SDS011;13143;50.924;5.320;2023-06-14T12:10:28;6.45;;;2.40;;
25191;SDS011;13143;50.924;5.320;2023-06-14T12:12:58;5.55;;;2.08;;
25191;SDS011;13143;50.924;5.320;2023-06-14T12:15:27;3.60;;;2.20;;
25191;SDS011;13143;50.924;5.320;2023-06-14T12:17:55;3.47;;;2.10;;
25191;SDS011;13143;50.924;5.320;2023-06-14T12:20:22;4.85;;;2.17;;
25191;SDS011;13143;50.924;5.320;2023-06-14T12:22:54;3.50;;;2.50;;
25191;SDS011;13143;50.924;5.320;2023-06-14T12:28:04;6.57;;;2.20;;
25191;SDS011;13143;50.924;5.320;2023-06-14T12:30:32;5.70;;;2.50;;
25191;SDS011;13143;50.924;5.320;2023-06-14T12:32:58;5.28;;;2.80;;
25191;SDS011;13143;50.924;5.320;2023-06-14T12:35:25;6.03;;;2.05;;
25191;SDS011;13143;50.924;5.320;2023-06-14T12:37:52;2.75;;;2.17;;
25191;SDS011;13143;50.924;5.320;2023-06-14T12:40:18;3.67;;;2.55;;
25191;SDS011;13143;50.924;5.320;2023-06-14T12:42:44;3.15;;;2.70;;
25191;SDS011;13143;50.924;5.320;2023-06-14T12:45:14;4.20;;;2.55;;
25191;SDS011;13143;50.924;5.320;2023-06-14T12:47:41;3.88;;;2.60;;
25191;SDS011;13143;50.924;5.320;2023-06-14T12:50:08;5.45;;;2.67;;
25191;SDS011;13143;50.924;5.320;2023-06-14T12:52:34;7.20;;;2.65;;
25191;SDS011;13143;50.924;5.320;2023-06-14T12:55:03;9.57;;;2.67;;
25191;SDS011;13143;50.924;5.320;2023-06-14T12:57:31;6.43;;;2.83;;
25191;SDS011;13143;50.924;5.320;2023-06-14T12:59:59;8.55;;;2.80;;
25191;SDS011;13143;50.924;5.320;2023-06-14T13:02:25;6.47;;;2.65;;
25191;SDS011;13143;50.924;5.320;2023-06-14T13:04:52;7.47;;;2.50;;
25191;SDS011;13143;50.924;5.320;2023-06-14T13:07:18;6.70;;;2.60;;
25191;SDS011;13143;50.924;5.320;2023-06-14T13:09:44;9.60;;;2.70;;
25191;SDS011;13143;50.924;5.320;2023-06-14T13:12:11;4.78;;;2.38;;
25191;SDS011;13143;50.924;5.320;2023-06-14T13:14:38;8.05;;;2.63;;
25191;SDS011;13143;50.924;5.320;2023-06-14T13:17:08;5.90;;;2.55;;
25191;SDS011;13143;50.924;5.320;2023-06-14T13:19:35;11.13;;;2.97;;
25191;SDS011;13143;50.924;5.320;2023-06-14T13:22:02;13.95;;;3.22;;
25191;SDS011;13143;50.924;5.320;2023-06-14T13:24:28;7.57;;;2.55;;
25191;SDS011;13143;50.924;5.320;2023-06-14T13:26:55;4.20;;;2.30;;
25191;SDS011;13143;50.924;5.320;2023-06-14T13:29:22;6.45;;;2.33;;
25191;SDS011;13143;50.924;5.320;2023-06-14T13:31:50;9.20;;;2.75;;
25191;SDS011;13143;50.924;5.320;2023-06-14T13:34:16;7.25;;;2.45;;
25191;SDS011;13143;50.924;5.320;2023-06-14T13:36:42;5.70;;;2.45;;
25191;SDS011;13143;50.924;5.320;2023-06-14T13:39:08;7.65;;;2.90;;
25191;SDS011;13143;50.924;5.320;2023-06-14T13:41:35;8.05;;;2.72;;
25191;SDS011;13143;50.924;5.320;2023-06-14T13:44:01;7.10;;;2.60;;
25191;SDS011;13143;50.924;5.320;2023-06-14T13:46:29;9.13;;;2.97;;
25191;SDS011;13143;50.924;5.320;2023-06-14T13:48:56;7.45;;;2.47;;
25191;SDS011;13143;50.924;5.320;2023-06-14T13:51:23;9.15;;;2.60;;
25191;SDS011;13143;50.924;5.320;2023-06-14T13:53:49;5.85;;;2.25;;
25191;SDS011;13143;50.924;5.320;2023-06-14T13:56:16;2.88;;;2.17;;
25191;SDS011;13143;50.924;5.320;2023-06-14T13:58:43;9.07;;;2.58;;
25191;SDS011;13143;50.924;5.320;2023-06-14T14:01:10;6.00;;;2.30;;
25191;SDS011;13143;50.924;5.320;2023-06-14T14:03:37;4.90;;;2.60;;
25191;SDS011;13143;50.924;5.320;2023-06-14T14:06:03;3.85;;;2.47;;
25191;SDS011;13143;50.924;5.320;2023-06-14T14:08:31;6.38;;;2.38;;
25191;SDS011;13143;50.924;5.320;2023-06-14T14:10:57;4.47;;;2.60;;
25191;SDS011;13143;50.924;5.320;2023-06-14T14:13:23;12.55;;;2.50;;
25191;SDS011;13143;50.924;5.320;2023-06-14T14:15:50;7.00;;;2.38;;
25191;SDS011;13143;50.924;5.320;2023-06-14T14:18:16;7.53;;;2.70;;
25191;SDS011;13143;50.924;5.320;2023-06-14T14:20:43;4.95;;;2.58;;
25191;SDS011;13143;50.924;5.320;2023-06-14T14:23:09;4.93;;;2.15;;
25191;SDS011;13143;50.924;5.320;2023-06-14T14:25:35;4.68;;;2.50;;
25191;SDS011;13143;50.924;5.320;2023-06-14T14:28:01;7.07;;;2.72;;
25191;SDS011;13143;50.924;5.320;2023-06-14T14:30:27;3.83;;;2.47;;
25191;SDS011;13143;50.924;5.320;2023-06-14T14:32:54;5.82;;;2.47;;
25191;SDS011;13143;50.924;5.320;2023-06-14T14:35:21;7.40;;;2.47;;
25191;SDS011;13143;50.924;5.320;2023-06-14T14:37:48;5.82;;;2.33;;
25191;SDS011;13143;50.924;5.320;2023-06-14T14:40:15;6.13;;;2.50;;
25191;SDS011;13143;50.924;5.320;2023-06-14T14:42:41;6.80;;;2.20;;
25191;SDS011;13143;50.924;5.320;2023-06-14T14:45:07;6.97;;;2.47;;
25191;SDS011;13143;50.924;5.320;2023-06-14T14:47:34;9.70;;;2.45;;
25191;SDS011;13143;50.924;5.320;2023-06-14T14:50:00;4.57;;;2.03;;
25191;SDS011;13143;50.924;5.320;2023-06-14T14:52:26;8.02;;;2.72;;
25191;SDS011;13143;50.924;5.320;2023-06-14T14:54:52;8.40;;;2.53;;
25191;SDS011;13143;50.924;5.320;2023-06-14T14:57:19;4.95;;;2.08;;
25191;SDS011;13143;50.924;5.320;2023-06-14T14:59:45;4.95;;;1.90;;
25191;SDS011;13143;50.924;5.320;2023-06-14T15:02:11;4.97;;;2.10;;
25191;SDS011;13143;50.924;5.320;2023-06-14T15:04:37;7.15;;;2.08;;
25191;SDS011;13143;50.924;5.320;2023-06-14T15:07:03;7.15;;;2.17;;
25191;SDS011;13143;50.924;5.320;2023-06-14T15:09:31;6.55;;;2.10;;